createdAt,value
2022-08-08T00:00:51.461Z,1005.99
2022-08-08T00:05:00.098Z,1005.96
2022-08-08T00:10:00.105Z,1005.99
2022-08-08T00:15:01.115Z,1006.07
2022-08-08T00:20:00.109Z,1006.02
2022-08-08T00:25:00.129Z,1006.11
2022-08-08T00:30:00.133Z,1005.99
2022-08-08T00:35:00.099Z,1006
2022-08-08T00:41:08.783Z,1005.96
2022-08-08T00:45:00.119Z,1006.02
2022-08-08T00:50:00.098Z,1006.08
2022-08-08T00:55:00.095Z,1006.06
2022-08-08T01:00:00.164Z,1006
2022-08-08T01:05:00.102Z,1006.04
2022-08-08T01:10:00.097Z,1006.08
2022-08-08T01:15:00.243Z,1006.03
2022-08-08T01:20:02.326Z,1006.06
2022-08-08T01:25:00.102Z,1006.1
2022-08-08T01:30:01.865Z,1006.12
2022-08-08T01:35:00.101Z,1006.06
2022-08-08T01:40:00.175Z,1006.06
2022-08-08T01:45:00.298Z,1005.94
2022-08-08T01:50:00.109Z,1006.01
2022-08-08T01:55:18.128Z,1006.1
2022-08-08T02:00:02.703Z,1005.99
2022-08-08T02:05:00.100Z,1006.03
2022-08-08T02:10:01.422Z,1005.82
2022-08-08T02:15:00.126Z,1005.93
2022-08-08T02:20:08.162Z,1005.97
2022-08-08T02:25:00.096Z,1005.86
2022-08-08T02:30:00.160Z,1005.95
2022-08-08T02:35:06.569Z,1005.93
2022-08-08T02:40:00.638Z,1005.91
2022-08-08T02:45:00.116Z,1005.97
2022-08-08T02:50:00.172Z,1006.01
2022-08-08T02:55:00.090Z,1006.14
2022-08-08T03:00:10.887Z,1006.16
2022-08-08T03:05:02.248Z,1006.12
2022-08-08T03:10:00.108Z,1006.13
2022-08-08T03:15:55.843Z,1006.17
2022-08-08T03:20:00.100Z,1006.14
2022-08-08T03:25:00.144Z,1006.16
2022-08-08T03:30:00.174Z,1006.12
2022-08-08T03:35:00.091Z,1006.21
2022-08-08T03:40:02.031Z,1006.17
2022-08-08T03:45:00.109Z,1006.2
2022-08-08T03:50:02.096Z,1006.21
2022-08-08T03:55:02.736Z,1006.17
2022-08-08T04:00:07.584Z,1006.32
2022-08-08T04:05:00.115Z,1006.33
2022-08-08T04:10:03.127Z,1006.24
2022-08-08T04:15:00.118Z,1006.39
2022-08-08T04:20:01.906Z,1006.35
2022-08-08T04:25:00.096Z,1006.46
2022-08-08T04:30:01.197Z,1006.44
2022-08-08T04:35:00.104Z,1006.53
2022-08-08T04:40:06.230Z,1006.62
2022-08-08T04:45:00.089Z,1006.66
2022-08-08T04:50:01.483Z,1006.65
2022-08-08T04:55:00.092Z,1006.75
2022-08-08T05:00:00.111Z,1006.66
2022-08-08T05:05:00.130Z,1006.65
2022-08-08T05:10:00.101Z,1006.81
2022-08-08T05:15:00.094Z,1006.88
2022-08-08T05:20:04.626Z,1006.8
2022-08-08T05:25:00.107Z,1006.89
2022-08-08T05:30:00.148Z,1006.92
2022-08-08T05:35:01.552Z,1006.85
2022-08-08T05:40:00.095Z,1006.9
2022-08-08T05:45:00.348Z,1006.97
2022-08-08T05:50:00.150Z,1006.95
2022-08-08T05:55:03.389Z,1006.92
2022-08-08T06:00:19.590Z,1007.04
2022-08-08T06:05:00.105Z,1007.01
2022-08-08T06:10:02.213Z,1007.11
2022-08-08T06:15:00.113Z,1007.08
2022-08-08T06:20:00.084Z,1007.09
2022-08-08T06:25:00.083Z,1007.33
2022-08-08T06:30:01.915Z,1007.25
2022-08-08T06:35:12.568Z,1007.28
2022-08-08T06:40:00.687Z,1007.33
2022-08-08T06:45:00.100Z,1007.28
2022-08-08T06:50:00.151Z,1007.34
2022-08-08T06:55:00.092Z,1007.32
2022-08-08T07:00:02.668Z,1007.44
2022-08-08T07:05:00.432Z,1007.37
2022-08-08T07:10:00.849Z,1007.43
2022-08-08T07:15:00.109Z,1007.35
2022-08-08T07:20:00.314Z,1007.4
2022-08-08T07:25:00.113Z,1007.44
2022-08-08T07:30:05.854Z,1007.46
2022-08-08T07:35:01.478Z,1007.45
2022-08-08T07:40:00.199Z,1007.48
2022-08-08T07:45:00.117Z,1007.46
2022-08-08T07:50:00.096Z,1007.49
2022-08-08T07:55:00.099Z,1007.56
2022-08-08T08:00:01.142Z,1007.66
2022-08-08T08:05:00.104Z,1007.64
2022-08-08T08:10:00.084Z,1007.78
2022-08-08T08:15:03.087Z,1007.69
2022-08-08T08:20:00.090Z,1007.74
2022-08-08T08:25:07.336Z,1007.77
2022-08-08T08:30:00.117Z,1007.75
2022-08-08T08:35:00.096Z,1007.75
2022-08-08T08:40:02.763Z,1007.7
2022-08-08T08:45:00.132Z,1007.72
2022-08-08T08:50:00.079Z,1007.75
2022-08-08T08:55:00.089Z,1007.76
2022-08-08T09:00:04.591Z,1007.77
2022-08-08T09:05:00.083Z,1007.8
2022-08-08T09:10:00.123Z,1007.78
2022-08-08T09:15:00.096Z,1007.84
2022-08-08T09:21:55.002Z,1007.81
2022-08-08T09:25:00.087Z,1007.74
2022-08-08T09:30:00.139Z,1007.66
2022-08-08T09:35:00.101Z,1007.6
2022-08-08T09:40:00.165Z,1007.66
2022-08-08T09:45:03.746Z,1007.62
2022-08-08T09:50:01.535Z,1007.62
2022-08-08T09:55:00.087Z,1007.57
2022-08-08T10:00:31.202Z,1007.6
2022-08-08T10:05:00.168Z,1007.56
2022-08-08T10:10:01.663Z,1007.61
2022-08-08T10:15:00.126Z,1007.49
2022-08-08T10:20:00.443Z,1007.47
2022-08-08T10:25:01.217Z,1007.4
2022-08-08T10:30:00.205Z,1007.43
2022-08-08T10:35:01.152Z,1007.38
2022-08-08T10:40:02.363Z,1007.33
2022-08-08T10:45:00.107Z,1007.28
2022-08-08T10:50:02.792Z,1007.25
2022-08-08T10:55:00.084Z,1007.34
2022-08-08T11:00:00.119Z,1007.22
2022-08-08T11:05:00.096Z,1007.21
2022-08-08T11:10:00.091Z,1007.07
2022-08-08T11:15:00.221Z,1007.09
2022-08-08T11:20:02.826Z,1007.12
2022-08-08T11:25:00.081Z,1007.16
2022-08-08T11:30:19.735Z,1007.09
2022-08-08T11:35:24.784Z,1007.03
2022-08-08T11:40:00.196Z,1007.11
2022-08-08T11:45:00.107Z,1007.05
2022-08-08T11:50:00.087Z,1007.06
2022-08-08T11:55:00.091Z,1006.95
2022-08-08T12:00:00.843Z,1006.94
2022-08-08T12:05:00.086Z,1006.95
2022-08-08T12:10:02.820Z,1007
2022-08-08T12:15:00.115Z,1006.93
2022-08-08T12:20:00.096Z,1006.94
2022-08-08T12:25:00.113Z,1006.93
2022-08-08T12:30:02.003Z,1006.86
2022-08-08T12:35:05.141Z,1006.98
2022-08-08T12:40:02.529Z,1006.9
2022-08-08T12:45:00.109Z,1006.8
2022-08-08T12:50:00.115Z,1006.82
2022-08-08T12:55:00.084Z,1006.73
2022-08-08T13:00:03.985Z,1006.7
2022-08-08T13:05:00.129Z,1006.6
2022-08-08T13:10:02.011Z,1006.66
2022-08-08T13:15:00.135Z,1006.57
2022-08-08T13:20:04.047Z,1006.61
2022-08-08T13:25:00.089Z,1006.57
2022-08-08T13:30:00.193Z,1006.59
2022-08-08T13:35:00.091Z,1006.54
2022-08-08T13:40:00.091Z,1006.57
2022-08-08T13:45:00.109Z,1006.62
2022-08-08T13:50:34.220Z,1006.52
2022-08-08T13:55:00.079Z,1006.49
2022-08-08T14:00:00.141Z,1006.54
2022-08-08T14:05:05.217Z,1006.52
2022-08-08T14:10:02.620Z,1006.47
2022-08-08T14:15:00.096Z,1006.44
2022-08-08T14:20:06.147Z,1006.49
2022-08-08T14:25:00.222Z,1006.5
2022-08-08T14:30:00.127Z,1006.44
2022-08-08T14:35:00.098Z,1006.47
2022-08-08T14:40:05.332Z,1006.53
2022-08-08T14:45:00.220Z,1006.48
2022-08-08T14:50:06.046Z,1006.48
2022-08-08T14:55:00.084Z,1006.45
2022-08-08T15:00:00.164Z,1006.43
2022-08-08T15:05:08.451Z,1006.33
2022-08-08T15:10:00.119Z,1006.32
2022-08-08T15:15:00.119Z,1006.39
2022-08-08T15:20:00.094Z,1006.38
2022-08-08T15:25:00.093Z,1006.29
2022-08-08T15:30:00.120Z,1006.35
2022-08-08T15:35:00.141Z,1006.27
2022-08-08T15:40:00.231Z,1006.31
2022-08-08T15:45:00.116Z,1006.33
2022-08-08T15:50:00.082Z,1006.35
2022-08-08T15:55:00.081Z,1006.35
2022-08-08T16:00:04.809Z,1006.28
2022-08-08T16:05:00.127Z,1006.24
2022-08-08T16:13:05.973Z,1006.33
2022-08-08T16:15:00.353Z,1006.35
2022-08-08T16:20:00.866Z,1006.32
2022-08-08T16:25:03.825Z,1006.39
2022-08-08T16:30:08.616Z,1006.35
2022-08-08T16:35:00.117Z,1006.27
2022-08-08T16:40:03.157Z,1006.35
2022-08-08T16:45:00.098Z,1006.32
2022-08-08T16:50:01.346Z,1006.39
2022-08-08T16:55:23.493Z,1006.36
2022-08-08T17:00:00.133Z,1006.3
2022-08-08T17:05:00.086Z,1006.34
2022-08-08T17:10:00.079Z,1006.32
2022-08-08T17:15:00.086Z,1006.28
2022-08-08T17:20:00.104Z,1006.35
2022-08-08T17:25:00.085Z,1006.41
2022-08-08T17:30:00.135Z,1006.39
2022-08-08T17:35:53.096Z,1006.47
2022-08-08T17:40:05.261Z,1006.54
2022-08-08T17:45:00.099Z,1006.46
2022-08-08T17:50:00.898Z,1006.58
2022-08-08T17:55:00.085Z,1006.64
2022-08-08T18:00:01.599Z,1006.6
2022-08-08T18:05:00.559Z,1006.66
2022-08-08T18:10:00.107Z,1006.7
2022-08-08T18:15:00.104Z,1006.76
2022-08-08T18:20:36.421Z,1006.8
2022-08-08T18:25:00.089Z,1006.84
2022-08-08T18:30:00.111Z,1006.82
2022-08-08T18:35:00.174Z,1006.93
2022-08-08T18:40:00.226Z,1007.02
2022-08-08T18:45:00.141Z,1007.05
2022-08-08T18:50:02.679Z,1007.14
2022-08-08T18:55:09.981Z,1007.16
2022-08-08T19:00:00.148Z,1007.2
2022-08-08T19:05:00.085Z,1007.29
2022-08-08T19:10:13.843Z,1007.32
2022-08-08T19:15:00.127Z,1007.34
2022-08-08T19:20:01.896Z,1007.44
2022-08-08T19:25:18.447Z,1007.46
2022-08-08T19:30:00.149Z,1007.4
2022-08-08T19:35:00.096Z,1007.46
2022-08-08T19:40:00.110Z,1007.46
2022-08-08T19:45:05.060Z,1007.49
2022-08-08T19:50:00.902Z,1007.57
2022-08-08T19:55:04.351Z,1007.56
2022-08-08T20:00:00.178Z,1007.67
2022-08-08T20:05:00.086Z,1007.64
2022-08-08T20:10:00.118Z,1007.67
2022-08-08T20:15:00.099Z,1007.63
2022-08-08T20:20:00.101Z,1007.58
2022-08-08T20:25:00.503Z,1007.71
2022-08-08T20:30:01.337Z,1007.74
2022-08-08T20:35:00.893Z,1007.76
2022-08-08T20:40:00.118Z,1007.75
2022-08-08T20:45:00.108Z,1007.84
2022-08-08T20:50:00.100Z,1007.83
2022-08-08T20:55:00.098Z,1007.78
2022-08-08T21:00:00.118Z,1007.79
2022-08-08T21:05:00.614Z,1007.86
2022-08-08T21:10:02.549Z,1007.82
2022-08-08T21:15:01.173Z,1007.78
2022-08-08T21:20:00.115Z,1007.77
2022-08-08T21:25:00.100Z,1007.8
2022-08-08T21:30:03.207Z,1007.7
2022-08-08T21:36:15.283Z,1007.76
2022-08-08T21:40:00.335Z,1007.75
2022-08-08T21:45:00.985Z,1007.82
2022-08-08T21:50:00.113Z,1007.82
2022-08-08T21:55:01.520Z,1007.83
2022-08-08T22:00:03.502Z,1007.87
2022-08-08T22:05:00.083Z,1007.84
2022-08-08T22:10:00.118Z,1007.89
2022-08-08T22:15:00.102Z,1007.85
2022-08-08T22:20:10.384Z,1007.98
2022-08-08T22:25:00.111Z,1008.04
2022-08-08T22:30:02.550Z,1008.07
2022-08-08T22:35:00.115Z,1007.99
2022-08-08T22:40:01.828Z,1008.13
2022-08-08T22:45:00.094Z,1008.04
2022-08-08T22:50:01.189Z,1007.97
2022-08-08T22:55:04.543Z,1008.04
2022-08-08T23:00:00.104Z,1008.06
2022-08-08T23:05:02.264Z,1008.09
2022-08-08T23:10:00.109Z,1008.08
2022-08-08T23:15:11.055Z,1008.08
2022-08-08T23:20:00.127Z,1008.11
2022-08-08T23:25:00.105Z,1008.09
2022-08-08T23:30:00.104Z,1008.02
2022-08-08T23:35:00.116Z,1008.05
2022-08-08T23:40:00.236Z,1008.1
2022-08-08T23:45:00.086Z,1008.11
2022-08-08T23:50:01.178Z,1008.15
2022-08-08T23:55:07.560Z,1008.1
